Time;durP1;ratioP1;P1;durP2;ratioP2;P2;SDS_P1;SDS_P2;PMS_P1;PMS_P2;Temp;Humidity;BMP_temperature;BMP_pressure;BME280_temperature;BME280_humidity;BME280_pressure;Samples;Min_cycle;Max_cycle;Signal;HPM_P1;HPM_P2
2022/12/21 00:01:20;;;;;;;710.45;71.82;;;8.60;99.90;;;;;;5045692;28;20036;-68
2022/12/21 00:03:46;;;;;;;689.85;76.30;;;8.60;99.90;;;;;;5044499;28;20418;-68
2022/12/21 00:06:13;;;;;;;743.95;77.80;;;8.60;99.90;;;;;;5039127;28;20072;-68
2022/12/21 00:08:41;;;;;;;741.63;73.75;;;8.60;99.90;;;;;;5059465;28;20382;-68
2022/12/21 00:11:07;;;;;;;615.38;71.90;;;8.70;99.90;;;;;;5042708;28;20044;-68
2022/12/21 00:13:33;;;;;;;609.45;71.80;;;8.70;99.90;;;;;;5038180;28;20033;-68
2022/12/21 00:16:04;;;;;;;584.67;68.93;;;8.70;99.90;;;;;;5046064;28;20095;-68
2022/12/21 00:18:32;;;;;;;692.83;75.68;;;8.60;99.90;;;;;;5043900;28;20076;-67
2022/12/21 00:21:04;;;;;;;781.08;74.20;;;8.50;99.90;;;;;;5040903;28;20043;-69
2022/12/21 00:23:31;;;;;;;;;;;8.60;99.90;;;;;;5046463;28;20456;-68
2022/12/21 00:25:59;;;;;;;888.15;78.07;;;8.60;99.90;;;;;;5060224;28;19920;-68
2022/12/21 00:28:25;;;;;;;826.70;78.05;;;8.60;99.90;;;;;;5043377;28;20406;-68
2022/12/21 00:30:50;;;;;;;730.25;66.22;;;8.50;99.90;;;;;;5041718;28;20048;-68
2022/12/21 00:33:16;;;;;;;990.97;77.55;;;8.60;99.90;;;;;;5059033;28;20132;-68
2022/12/21 00:35:49;;;;;;;754.33;70.72;;;8.50;99.90;;;;;;5044677;28;20045;-67
2022/12/21 00:38:15;;;;;;;1014.42;78.32;;;8.40;99.90;;;;;;5021790;28;20040;-68
2022/12/21 00:40:42;;;;;;;990.95;81.55;;;8.50;99.90;;;;;;5039946;28;20049;-69
2022/12/21 00:43:09;;;;;;;810.28;73.18;;;8.40;99.90;;;;;;5046436;28;20386;-68
2022/12/21 00:45:35;;;;;;;994.00;79.57;;;8.40;99.90;;;;;;5040693;28;20041;-69
2022/12/21 00:48:00;;;;;;;751.60;66.30;;;8.30;99.90;;;;;;5038167;28;20049;-67
2022/12/21 00:50:26;;;;;;;965.05;71.82;;;8.40;99.90;;;;;;5036165;28;20052;-67
2022/12/21 00:52:52;;;;;;;1025.70;82.45;;;8.40;99.90;;;;;;5027791;28;20048;-69
2022/12/21 00:55:17;;;;;;;1183.32;88.75;;;8.30;99.90;;;;;;5044895;28;20037;-68
2022/12/21 00:57:43;;;;;;;899.55;76.78;;;8.30;99.90;;;;;;5040739;28;20029;-68
2022/12/21 01:00:09;;;;;;;693.88;59.92;;;8.20;99.90;;;;;;5037975;28;20099;-67
2022/12/21 01:02:36;;;;;;;877.08;74.30;;;8.10;99.90;;;;;;5041845;28;20073;-67
2022/12/21 01:05:01;;;;;;;1096.45;76.40;;;8.00;99.90;;;;;;5041037;28;20147;-68
2022/12/21 01:07:27;;;;;;;984.55;78.40;;;8.10;99.90;;;;;;5040573;28;20068;-68
2022/12/21 01:09:53;;;;;;;1059.82;79.65;;;8.10;99.90;;;;;;5045132;28;20059;-68
2022/12/21 01:12:18;;;;;;;802.03;68.40;;;8.00;99.90;;;;;;5043878;28;20486;-68
2022/12/21 01:14:44;;;;;;;983.83;74.15;;;8.00;99.90;;;;;;5042014;28;20037;-68
2022/12/21 01:17:10;;;;;;;986.50;72.25;;;7.90;99.90;;;;;;5039260;28;20029;-69
2022/12/21 01:19:35;;;;;;;858.13;68.72;;;7.90;99.90;;;;;;5037971;28;20083;-68
2022/12/21 01:22:01;;;;;;;911.80;69.63;;;7.80;99.90;;;;;;5036814;28;20508;-66
2022/12/21 01:24:26;;;;;;;1010.90;70.82;;;7.90;99.90;;;;;;5045676;28;20040;-68
2022/12/21 01:26:52;;;;;;;794.17;64.43;;;7.80;99.90;;;;;;5035752;28;20111;-67
2022/12/21 01:29:17;;;;;;;872.63;65.45;;;7.80;99.90;;;;;;5035365;28;20041;-67
2022/12/21 01:31:43;;;;;;;842.00;66.88;;;7.80;99.90;;;;;;5043463;28;20052;-68
2022/12/21 01:34:09;;;;;;;969.92;69.47;;;7.80;99.90;;;;;;5040656;28;20034;-69
2022/12/21 01:36:34;;;;;;;977.85;67.72;;;7.80;99.90;;;;;;5041027;28;20092;-68
2022/12/21 01:39:00;;;;;;;1006.13;68.75;;;7.70;99.90;;;;;;5040677;28;20222;-67
2022/12/21 01:41:27;;;;;;;960.97;70.65;;;7.70;99.90;;;;;;5038552;28;20083;-67
2022/12/21 01:43:55;;;;;;;931.70;67.95;;;7.70;99.90;;;;;;5042511;28;20741;-68
2022/12/21 01:46:24;;;;;;;585.80;51.45;;;7.70;99.90;;;;;;5045136;28;20411;-68
2022/12/21 01:49:12;;;;;;;843.50;63.80;;;7.60;99.90;;;;;;5039994;28;20091;-68
2022/12/21 01:51:40;;;;;;;933.55;63.88;;;7.60;99.90;;;;;;5041934;28;20052;-68
2022/12/21 01:54:31;;;;;;;670.63;55.35;;;7.60;99.90;;;;;;5018803;28;20079;-67
2022/12/21 01:57:00;;;;;;;782.03;62.00;;;7.50;99.90;;;;;;5053844;28;20045;-67
2022/12/21 01:59:32;;;;;;;657.08;54.25;;;7.40;99.90;;;;;;5045021;28;20067;-67
2022/12/21 02:02:01;;;;;;;800.97;58.17;;;7.40;99.90;;;;;;5039437;28;20037;-67
2022/12/21 02:04:27;;;;;;;579.03;49.90;;;7.50;99.90;;;;;;5036135;28;20033;-67
2022/12/21 02:06:57;;;;;;;835.83;62.00;;;7.50;99.90;;;;;;5019387;28;20037;-67
2022/12/21 02:09:30;;;;;;;676.83;55.20;;;7.40;99.90;;;;;;5024027;28;20044;-68
2022/12/21 02:11:57;;;;;;;583.65;50.67;;;7.40;99.90;;;;;;5036605;28;20631;-67
2022/12/21 02:14:26;;;;;;;810.97;59.78;;;7.40;99.90;;;;;;5034575;28;20055;-68
2022/12/21 02:17:26;;;;;;;881.20;64.72;;;7.40;99.90;;;;;;5047579;28;20471;-67
2022/12/21 02:20:28;;;;;;;755.42;56.63;;;7.20;99.90;;;;;;5033579;28;20045;-67
2022/12/21 02:23:25;;;;;;;546.92;48.03;;;7.30;99.90;;;;;;5058617;28;20033;-67
2022/12/21 02:25:57;;;;;;;395.77;41.88;;;7.30;99.90;;;;;;5033792;28;20132;-67
2022/12/21 02:28:44;;;;;;;397.98;41.80;;;7.20;99.90;;;;;;5033658;28;20037;-67
2022/12/21 02:31:32;;;;;;;650.83;52.65;;;7.20;99.90;;;;;;5035026;28;20040;-67
2022/12/21 02:34:24;;;;;;;296.02;38.83;;;7.30;99.90;;;;;;5040200;28;20484;-67
2022/12/21 02:37:09;;;;;;;449.13;43.10;;;7.20;99.90;;;;;;5047363;28;20033;-67
2022/12/21 02:39:45;;;;;;;766.40;58.55;;;7.10;99.90;;;;;;5027815;28;20049;-67
2022/12/21 02:44:12;;;;;;;617.28;51.13;;;7.20;99.90;;;;;;5035679;28;20480;-67
2022/12/21 02:45:09;;;;;;;443.95;43.45;;;7.20;99.90;;;;;;5044144;28;20075;-67
2022/12/21 02:47:46;;;;;;;623.05;50.67;;;7.20;99.90;;;;;;5038569;28;20049;-67
2022/12/21 02:50:15;;;;;;;314.30;36.58;;;7.10;99.90;;;;;;5044347;28;20443;-68
2022/12/21 02:52:56;;;;;;;538.75;45.25;;;7.20;99.90;;;;;;5045385;28;20363;-67
2022/12/21 02:55:26;;;;;;;398.95;41.35;;;7.10;99.90;;;;;;5040643;28;20037;-67
2022/12/21 02:58:16;;;;;;;690.35;52.05;;;7.10;99.90;;;;;;5034619;28;20072;-67
2022/12/21 03:01:23;;;;;;;526.58;46.63;;;7.00;99.90;;;;;;5039861;28;20051;-67
2022/12/21 03:03:58;;;;;;;646.25;49.33;;;7.10;99.90;;;;;;5041683;28;20076;-67
2022/12/21 03:06:48;;;;;;;832.08;59.00;;;7.00;99.90;;;;;;5036268;28;20091;-67
2022/12/21 03:09:39;;;;;;;622.85;47.72;;;7.00;99.90;;;;;;5054086;28;20042;-67
2022/12/21 03:12:28;;;;;;;715.63;56.78;;;7.10;99.90;;;;;;5035642;28;20053;-67
2022/12/21 03:15:09;;;;;;;781.70;57.30;;;7.00;99.90;;;;;;5042078;28;20060;-67
2022/12/21 03:17:59;;;;;;;728.58;52.97;;;7.10;99.90;;;;;;5043829;28;20047;-67
2022/12/21 03:20:36;;;;;;;257.67;36.20;;;7.00;99.90;;;;;;5034180;28;20056;-67
2022/12/21 03:23:18;;;;;;;450.88;44.35;;;7.00;99.90;;;;;;5042047;28;20491;-67
2022/12/21 03:26:06;;;;;;;287.83;36.53;;;7.00;99.90;;;;;;5026349;28;20075;-67
2022/12/21 03:28:35;;;;;;;310.80;37.95;;;6.90;99.90;;;;;;5038536;28;20045;-67
2022/12/21 03:31:09;;;;;;;903.53;61.00;;;7.10;99.90;;;;;;5017685;28;20040;-67
2022/12/21 03:33:40;;;;;;;474.10;43.25;;;7.00;99.90;;;;;;5036205;28;20091;-67
2022/12/21 03:36:12;;;;;;;719.85;55.10;;;7.00;99.90;;;;;;5058436;28;20051;-67
2022/12/21 03:38:52;;;;;;;662.60;52.50;;;6.90;99.90;;;;;;5044857;28;20076;-67
2022/12/21 03:41:24;;;;;;;563.20;47.58;;;7.00;99.90;;;;;;5035688;28;20048;-67
2022/12/21 03:43:52;;;;;;;746.65;54.88;;;7.00;99.90;;;;;;5058951;28;20033;-67
2022/12/21 03:46:26;;;;;;;473.35;43.92;;;7.00;99.90;;;;;;5054150;28;20091;-67
2022/12/21 03:49:00;;;;;;;811.80;58.92;;;7.00;99.90;;;;;;5037165;28;20393;-67
2022/12/21 03:51:44;;;;;;;830.38;59.80;;;7.00;99.90;;;;;;5035464;28;20073;-67
2022/12/21 03:54:25;;;;;;;404.67;42.45;;;7.00;99.90;;;;;;5042233;28;20087;-67
2022/12/21 03:56:51;;;;;;;965.50;68.00;;;7.00;99.90;;;;;;5036356;28;20037;-67
2022/12/21 03:59:17;;;;;;;564.42;48.72;;;7.10;99.90;;;;;;5037109;28;20037;-67
2022/12/21 04:01:56;;;;;;;467.88;43.85;;;7.00;99.90;;;;;;5035760;28;20451;-67
2022/12/21 04:05:01;;;;;;;465.63;43.83;;;7.00;99.90;;;;;;5054945;28;20047;-67
2022/12/21 04:07:28;;;;;;;495.00;44.97;;;7.00;99.90;;;;;;5038789;28;20046;-67
2022/12/21 04:10:03;;;;;;;509.83;47.13;;;6.90;99.90;;;;;;5039600;28;21293;-66
2022/12/21 04:12:38;;;;;;;536.60;45.38;;;6.90;99.90;;;;;;5045649;28;20395;-67
2022/12/21 04:15:10;;;;;;;451.17;43.10;;;6.90;99.90;;;;;;5042241;28;20091;-67
2022/12/21 04:17:36;;;;;;;636.85;53.20;;;6.90;99.90;;;;;;5040846;28;20041;-67
2022/12/21 04:20:04;;;;;;;412.88;41.08;;;7.00;99.90;;;;;;5039033;28;20051;-67
2022/12/21 04:28:09;;;;;;;407.77;39.40;;;6.80;99.90;;;;;;5040639;28;20045;-67
2022/12/21 04:30:40;;;;;;;583.88;48.22;;;6.90;99.90;;;;;;5039835;28;20361;-67
2022/12/21 04:33:08;;;;;;;390.48;39.55;;;6.90;99.90;;;;;;5039879;28;20064;-67
2022/12/21 04:35:34;;;;;;;530.58;45.53;;;6.80;99.90;;;;;;5026013;28;20067;-67
2022/12/21 04:38:01;;;;;;;492.38;41.85;;;6.90;99.90;;;;;;5043417;28;20045;-67
2022/12/21 04:40:26;;;;;;;700.80;49.53;;;6.80;99.90;;;;;;5026696;28;20056;-67
2022/12/21 04:42:52;;;;;;;389.08;36.47;;;6.80;99.90;;;;;;5035464;28;20048;-67
2022/12/21 04:45:18;;;;;;;1033.70;61.78;;;6.90;99.90;;;;;;5039236;28;20037;-67
2022/12/21 04:47:43;;;;;;;558.25;43.65;;;6.80;99.90;;;;;;5042347;28;20053;-67
2022/12/21 04:50:10;;;;;;;491.25;41.67;;;6.80;99.90;;;;;;5043101;28;20037;-67
2022/12/21 04:52:35;;;;;;;481.48;41.42;;;6.80;99.90;;;;;;5046357;28;20299;-67
2022/12/21 04:55:02;;;;;;;476.40;42.60;;;6.80;99.90;;;;;;5044667;28;20037;-67
2022/12/21 04:57:28;;;;;;;207.95;34.10;;;6.90;99.90;;;;;;5043768;28;20033;-67
2022/12/21 04:59:54;;;;;;;573.42;48.85;;;6.80;99.90;;;;;;5040688;28;20049;-67
2022/12/21 05:02:19;;;;;;;574.15;48.35;;;6.90;99.90;;;;;;5041949;28;20052;-67
2022/12/21 05:04:45;;;;;;;409.70;40.67;;;6.90;99.90;;;;;;5042022;28;20041;-67
2022/12/21 05:07:11;;;;;;;389.65;39.83;;;6.80;99.90;;;;;;5041635;28;20048;-67
2022/12/21 05:09:36;;;;;;;369.88;40.70;;;6.80;99.90;;;;;;5042691;28;20036;-67
2022/12/21 05:12:02;;;;;;;296.33;37.60;;;6.90;99.90;;;;;;5045881;28;20483;-66
2022/12/21 05:14:28;;;;;;;620.58;51.50;;;7.00;99.90;;;;;;5059328;28;20040;-67
2022/12/21 05:16:53;;;;;;;537.20;46.28;;;6.80;99.90;;;;;;5024751;28;20036;-66
2022/12/21 05:19:19;;;;;;;271.35;38.08;;;6.90;99.90;;;;;;5062406;28;20040;-67
2022/12/21 05:21:45;;;;;;;349.63;40.20;;;6.90;99.90;;;;;;5041417;28;20454;-66
2022/12/21 05:24:11;;;;;;;369.80;41.58;;;7.00;99.90;;;;;;5038014;28;20314;-67
2022/12/21 05:26:36;;;;;;;363.77;41.30;;;7.00;99.90;;;;;;5040321;28;20037;-67
2022/12/21 05:29:02;;;;;;;363.88;42.50;;;6.80;99.90;;;;;;5042739;28;20028;-66
2022/12/21 05:31:29;;;;;;;251.60;38.03;;;7.00;99.90;;;;;;5036561;28;20068;-67
2022/12/21 05:33:55;;;;;;;188.68;35.45;;;6.90;99.90;;;;;;5039215;28;20037;-67
2022/12/21 05:36:21;;;;;;;250.60;38.08;;;7.00;99.90;;;;;;5047136;28;20047;-67
2022/12/21 05:38:47;;;;;;;303.83;41.95;;;6.80;99.90;;;;;;5041757;28;20037;-66
2022/12/21 05:41:14;;;;;;;361.85;43.13;;;6.80;99.90;;;;;;5039772;28;20044;-67
2022/12/21 05:43:40;;;;;;;276.80;39.20;;;6.80;99.90;;;;;;5022389;28;20503;-67
2022/12/21 05:46:08;;;;;;;285.55;38.40;;;7.00;99.90;;;;;;5049218;28;20253;-67
2022/12/21 05:48:34;;;;;;;530.20;49.35;;;7.00;99.90;;;;;;5042307;28;20049;-67
2022/12/21 05:51:08;;;;;;;472.63;43.15;;;6.80;99.90;;;;;;5028249;28;20036;-67
2022/12/21 05:53:36;;;;;;;515.47;46.95;;;6.90;99.90;;;;;;5039288;28;20049;-67
2022/12/21 05:56:01;;;;;;;213.48;35.58;;;6.80;99.90;;;;;;5043331;28;20048;-67
2022/12/21 05:58:27;;;;;;;276.92;35.95;;;6.90;99.90;;;;;;5023690;28;20033;-67
2022/12/21 06:00:52;;;;;;;284.45;38.42;;;6.90;99.90;;;;;;5042762;28;20450;-67
2022/12/21 06:03:18;;;;;;;204.82;34.05;;;6.90;99.90;;;;;;5039550;28;20048;-67
2022/12/21 06:05:44;;;;;;;466.33;43.17;;;6.90;99.90;;;;;;5042536;28;20040;-67
2022/12/21 06:08:09;;;;;;;202.63;34.50;;;6.90;99.90;;;;;;5055578;28;20376;-67
2022/12/21 06:10:36;;;;;;;229.60;35.83;;;6.80;99.90;;;;;;5044056;28;20056;-67
2022/12/21 06:13:02;;;;;;;252.63;35.70;;;6.90;99.90;;;;;;5040956;28;20495;-67
2022/12/21 06:15:28;;;;;;;228.90;34.17;;;6.80;99.90;;;;;;5044391;28;20075;-67
2022/12/21 06:17:53;;;;;;;240.27;37.30;;;6.80;99.90;;;;;;5037407;28;20668;-67
2022/12/21 06:20:19;;;;;;;334.52;38.80;;;6.80;99.90;;;;;;5028915;28;20041;-67
2022/12/21 06:22:45;;;;;;;260.10;36.65;;;6.90;99.90;;;;;;5039946;28;20099;-67
2022/12/21 06:25:10;;;;;;;253.02;38.40;;;6.80;99.90;;;;;;5042338;28;20068;-67
2022/12/21 06:27:36;;;;;;;214.35;35.47;;;6.70;99.90;;;;;;5038715;28;20049;-67
2022/12/21 06:30:02;;;;;;;223.20;35.10;;;6.80;99.90;;;;;;5044269;28;20091;-67
2022/12/21 06:32:28;;;;;;;264.67;37.72;;;6.70;99.90;;;;;;5039201;28;20465;-67
2022/12/21 06:34:53;;;;;;;212.95;35.05;;;6.70;99.90;;;;;;5037860;28;20123;-67
2022/12/21 06:37:19;;;;;;;390.70;43.25;;;6.70;99.90;;;;;;5042167;28;20042;-67
2022/12/21 06:39:45;;;;;;;305.67;39.00;;;6.70;99.90;;;;;;5040728;28;20487;-67
2022/12/21 06:42:10;;;;;;;277.20;38.72;;;6.70;99.90;;;;;;5039260;28;20040;-67
2022/12/21 06:44:36;;;;;;;361.38;42.70;;;6.80;99.90;;;;;;5037409;28;20049;-67
2022/12/21 06:47:26;;;;;;;233.13;37.15;;;6.80;99.90;;;;;;5038942;28;20119;-67
2022/12/21 06:50:11;;;;;;;199.73;34.10;;;6.70;99.90;;;;;;5042052;28;20075;-67
2022/12/21 06:52:55;;;;;;;392.75;43.05;;;6.70;99.90;;;;;;5045679;28;20111;-67
2022/12/21 06:55:20;;;;;;;237.63;37.15;;;6.70;99.90;;;;;;5028188;28;20061;-67
2022/12/21 06:57:46;;;;;;;273.60;41.00;;;6.70;99.90;;;;;;5046510;28;20041;-67
2022/12/21 07:00:14;;;;;;;206.43;38.60;;;6.70;99.90;;;;;;5044236;28;20051;-67
2022/12/21 07:02:39;;;;;;;478.58;51.47;;;6.70;99.90;;;;;;5045424;28;20041;-67
2022/12/21 07:05:05;;;;;;;512.40;50.40;;;6.60;99.90;;;;;;5041234;28;20074;-67
2022/12/21 07:07:31;;;;;;;188.05;36.85;;;6.80;99.90;;;;;;5046203;28;20061;-67
2022/12/21 07:09:57;;;;;;;287.38;40.15;;;6.60;99.90;;;;;;5044356;28;20043;-67
2022/12/21 07:12:22;;;;;;;273.77;40.28;;;6.70;99.90;;;;;;5046834;28;20033;-67
2022/12/21 07:14:48;;;;;;;199.10;37.22;;;6.60;99.90;;;;;;5040039;28;20040;-67
2022/12/21 07:17:13;;;;;;;243.57;39.97;;;6.60;99.90;;;;;;5043204;28;20029;-67
2022/12/21 07:19:39;;;;;;;338.60;44.22;;;6.60;99.90;;;;;;5048427;28;20499;-67
2022/12/21 07:22:05;;;;;;;336.20;42.83;;;6.50;99.90;;;;;;5044582;28;20036;-67
2022/12/21 07:24:30;;;;;;;262.10;39.67;;;6.40;99.90;;;;;;5048257;28;20045;-67
2022/12/21 07:26:56;;;;;;;249.13;40.33;;;6.40;99.90;;;;;;5061249;28;20037;-67
2022/12/21 07:29:21;;;;;;;217.57;38.03;;;6.40;99.90;;;;;;5044851;28;20041;-67
2022/12/21 07:31:47;;;;;;;224.63;39.40;;;6.40;99.90;;;;;;5039786;28;20048;-67
2022/12/21 07:34:12;;;;;;;498.10;49.45;;;6.40;99.90;;;;;;5048407;28;20032;-67
2022/12/21 07:40:38;;;;;;;232.43;37.53;;;6.20;99.90;;;;;;5046217;28;20032;-67
2022/12/21 07:43:24;;;;;;;222.82;36.88;;;6.20;99.90;;;;;;5051028;28;20183;-67
2022/12/21 07:46:20;;;;;;;317.63;42.75;;;6.20;99.90;;;;;;5045505;28;20036;-67
2022/12/21 07:48:49;;;;;;;230.15;40.72;;;6.30;99.90;;;;;;5049055;28;20037;-67
2022/12/21 07:51:15;;;;;;;421.48;48.28;;;6.30;99.90;;;;;;5060931;28;20071;-67
2022/12/21 07:53:40;;;;;;;217.88;40.20;;;6.20;99.90;;;;;;5041224;28;20033;-67
2022/12/21 07:56:18;;;;;;;329.02;45.13;;;6.30;99.90;;;;;;5047017;28;20362;-66
2022/12/21 07:58:44;;;;;;;553.30;52.83;;;6.10;99.90;;;;;;5043543;28;20072;-66
2022/12/21 08:01:12;;;;;;;427.00;49.03;;;6.20;99.90;;;;;;5035617;28;20048;-67
2022/12/21 08:03:39;;;;;;;215.30;40.20;;;6.20;99.90;;;;;;5044700;28;20127;-66
2022/12/21 08:06:06;;;;;;;289.40;43.05;;;6.10;99.90;;;;;;5063383;28;20057;-67
2022/12/21 08:08:32;;;;;;;244.52;41.97;;;6.10;99.90;;;;;;5061203;28;20048;-67
2022/12/21 08:10:58;;;;;;;243.65;41.78;;;6.10;99.90;;;;;;5050895;28;20620;-67
2022/12/21 08:13:24;;;;;;;202.55;38.47;;;6.00;99.90;;;;;;5044766;28;20130;-67
2022/12/21 08:16:01;;;;;;;496.13;48.92;;;6.10;99.90;;;;;;5054541;28;20131;-67
2022/12/21 08:18:29;;;;;;;213.35;39.08;;;6.00;99.90;;;;;;5050829;28;20399;-67
2022/12/21 08:20:56;;;;;;;194.25;36.33;;;6.00;99.90;;;;;;5046463;28;20562;-66
2022/12/21 08:23:22;;;;;;;221.02;38.72;;;6.00;99.90;;;;;;5042588;28;20041;-67
2022/12/21 08:25:48;;;;;;;216.38;35.45;;;5.90;99.90;;;;;;5049390;28;20080;-66
2022/12/21 08:28:13;;;;;;;179.50;35.22;;;5.90;99.90;;;;;;5051043;28;20470;-67
2022/12/21 08:30:39;;;;;;;171.35;37.30;;;5.90;99.90;;;;;;5061246;28;20032;-67
2022/12/21 08:33:05;;;;;;;203.48;37.45;;;6.00;99.90;;;;;;5071897;28;20422;-67
2022/12/21 08:35:32;;;;;;;339.48;45.33;;;6.00;99.90;;;;;;5041032;28;20033;-66
2022/12/21 08:37:57;;;;;;;214.20;40.72;;;6.20;99.90;;;;;;5055398;28;20037;-67
2022/12/21 08:40:23;;;;;;;269.45;44.05;;;6.30;99.90;;;;;;5050476;28;20186;-66
2022/12/21 08:42:51;;;;;;;244.10;41.05;;;6.30;99.90;;;;;;5048534;28;20033;-66
2022/12/21 08:45:17;;;;;;;373.70;45.75;;;6.30;99.90;;;;;;5044920;28;20534;-66
2022/12/21 08:47:43;;;;;;;517.33;51.78;;;6.50;99.90;;;;;;5046661;28;20033;-67
2022/12/21 08:50:08;;;;;;;311.77;42.28;;;6.50;99.90;;;;;;5042882;28;20707;-66
2022/12/21 08:52:34;;;;;;;350.30;44.60;;;6.70;99.90;;;;;;5043751;28;20041;-65
2022/12/21 08:54:59;;;;;;;283.38;41.67;;;6.70;99.90;;;;;;5047224;28;20098;-66
2022/12/21 08:57:25;;;;;;;207.60;39.20;;;6.70;99.90;;;;;;5041693;28;20049;-66
2022/12/21 08:59:51;;;;;;;323.17;43.92;;;6.70;99.90;;;;;;5046081;28;20037;-66
2022/12/21 09:02:17;;;;;;;357.45;46.90;;;6.80;99.90;;;;;;5059026;28;20517;-66
2022/12/21 09:04:42;;;;;;;444.63;49.80;;;6.80;99.90;;;;;;5029886;28;20065;-67
2022/12/21 09:07:08;;;;;;;368.48;48.15;;;6.90;99.90;;;;;;5046476;28;20041;-66
2022/12/21 09:09:34;;;;;;;246.48;42.50;;;6.90;99.90;;;;;;5075629;28;20040;-65
2022/12/21 09:12:00;;;;;;;385.50;45.35;;;6.90;99.90;;;;;;5053202;28;20037;-66
2022/12/21 09:14:28;;;;;;;358.90;47.03;;;7.00;99.90;;;;;;5065831;28;20056;-66
2022/12/21 09:16:54;;;;;;;392.75;46.75;;;6.90;99.90;;;;;;5049930;28;20464;-67
2022/12/21 09:19:20;;;;;;;260.63;43.83;;;7.00;99.90;;;;;;5039842;28;20120;-66
2022/12/21 09:21:45;;;;;;;408.83;47.40;;;7.10;99.90;;;;;;5052262;28;20123;-67
2022/12/21 09:24:11;;;;;;;298.15;43.03;;;7.10;99.90;;;;;;5056545;28;20116;-66
2022/12/21 09:26:37;;;;;;;317.10;44.92;;;7.20;99.90;;;;;;5029565;28;20051;-67
2022/12/21 09:29:02;;;;;;;411.30;47.83;;;7.10;99.90;;;;;;5047426;28;20059;-65
2022/12/21 09:31:28;;;;;;;363.83;45.35;;;7.30;99.90;;;;;;5055118;28;20029;-66
2022/12/21 09:33:55;;;;;;;332.67;46.75;;;7.30;99.90;;;;;;5048846;28;20187;-66
2022/12/21 09:36:21;;;;;;;320.65;45.10;;;7.40;99.90;;;;;;5065681;28;20041;-66
2022/12/21 09:38:47;;;;;;;300.42;42.17;;;7.40;99.90;;;;;;5042587;28;20033;-66
2022/12/21 09:41:27;;;;;;;284.30;41.65;;;7.50;99.90;;;;;;5045123;28;20374;-66
2022/12/21 09:44:32;;;;;;;267.08;40.55;;;7.50;99.90;;;;;;5045629;28;20041;-64
2022/12/21 09:47:02;;;;;;;287.85;42.58;;;7.50;99.90;;;;;;5047462;28;20080;-65
2022/12/21 09:49:41;;;;;;;273.17;40.10;;;7.50;99.90;;;;;;5045048;28;20534;-66
2022/12/21 09:52:17;;;;;;;275.95;40.08;;;7.50;99.90;;;;;;5041191;28;20539;-64
2022/12/21 09:54:51;;;;;;;250.90;37.45;;;7.70;99.90;;;;;;5048532;28;20041;-64
2022/12/21 09:57:17;;;;;;;260.35;37.90;;;7.70;99.90;;;;;;5039430;28;20132;-65
2022/12/21 09:59:42;;;;;;;268.00;39.33;;;7.70;99.90;;;;;;5047072;28;20442;-64
2022/12/21 10:02:45;;;;;;;256.88;40.15;;;7.80;99.90;;;;;;5036605;28;20037;-65
2022/12/21 10:05:20;;;;;;;247.82;37.10;;;7.80;99.90;;;;;;5048137;28;20048;-66
2022/12/21 10:08:10;;;;;;;264.83;42.15;;;7.80;99.90;;;;;;5046698;28;20128;-65
2022/12/21 10:11:00;;;;;;;215.27;35.40;;;7.90;99.90;;;;;;5042107;28;20469;-65
2022/12/21 10:13:35;;;;;;;224.23;35.80;;;7.90;99.90;;;;;;5069071;28;20048;-65
2022/12/21 10:16:17;;;;;;;227.13;36.90;;;7.80;99.90;;;;;;5069756;28;20119;-66
2022/12/21 10:19:06;;;;;;;217.35;37.50;;;7.80;99.90;;;;;;5035580;28;20037;-65
2022/12/21 10:21:59;;;;;;;218.07;35.97;;;7.80;99.90;;;;;;5044454;28;20048;-67
2022/12/21 10:24:35;;;;;;;236.77;36.28;;;7.70;99.90;;;;;;5068530;28;20041;-66
2022/12/21 10:27:11;;;;;;;224.30;36.15;;;7.70;99.90;;;;;;5047254;28;20430;-65
2022/12/21 10:29:40;;;;;;;221.00;34.60;;;7.70;99.90;;;;;;5059668;28;20087;-66
2022/12/21 10:32:12;;;;;;;223.00;37.80;;;7.70;99.90;;;;;;5045911;28;20067;-67
2022/12/21 10:34:46;;;;;;;210.00;36.00;;;7.80;99.90;;;;;;5049525;28;20049;-66
2022/12/21 10:37:16;;;;;;;205.45;37.03;;;7.70;99.90;;;;;;5070299;28;20090;-66
2022/12/21 10:39:43;;;;;;;205.35;37.65;;;7.70;99.90;;;;;;5047037;28;20087;-67
2022/12/21 10:42:30;;;;;;;193.60;36.00;;;7.70;99.90;;;;;;5049137;28;20045;-67
2022/12/21 10:44:58;;;;;;;199.32;35.85;;;7.90;99.90;;;;;;5041514;28;20053;-66
2022/12/21 10:47:23;;;;;;;202.13;35.90;;;7.70;99.90;;;;;;5055932;28;20045;-67
2022/12/21 10:50:10;;;;;;;211.75;37.70;;;7.80;99.90;;;;;;5045006;28;20056;-65
2022/12/21 10:52:50;;;;;;;228.52;38.45;;;7.80;99.90;;;;;;5042422;28;20549;-67
2022/12/21 10:55:19;;;;;;;227.77;38.75;;;7.80;99.90;;;;;;5043161;28;20076;-66
2022/12/21 10:58:03;;;;;;;206.52;37.20;;;7.90;99.90;;;;;;5043316;28;20037;-67
2022/12/21 11:00:29;;;;;;;206.82;38.85;;;7.90;99.90;;;;;;5046421;28;20045;-69
2022/12/21 11:03:01;;;;;;;201.45;39.13;;;7.80;99.90;;;;;;5028407;28;20037;-67
2022/12/21 11:05:41;;;;;;;;;;;7.90;99.90;;;;;;5046133;28;20040;-67
2022/12/21 11:08:21;;;;;;;208.88;38.22;;;7.80;99.90;;;;;;5042982;28;19991;-68
2022/12/21 11:10:56;;;;;;;209.70;38.97;;;8.00;99.90;;;;;;5043457;28;20412;-67
2022/12/21 11:13:24;;;;;;;209.52;38.92;;;7.90;99.90;;;;;;5044468;28;20041;-68
2022/12/21 11:16:18;;;;;;;208.10;40.60;;;8.00;99.90;;;;;;5047290;28;20098;-68
2022/12/21 11:18:47;;;;;;;192.95;37.83;;;8.00;99.90;;;;;;5060594;28;20053;-68
2022/12/21 11:21:32;;;;;;;192.15;40.58;;;8.00;99.90;;;;;;5046477;28;20068;-69
2022/12/21 11:23:59;;;;;;;196.95;39.55;;;8.00;99.90;;;;;;5029345;28;20048;-68
2022/12/21 11:26:30;;;;;;;202.55;39.20;;;8.00;99.90;;;;;;5045975;28;20053;-68
2022/12/21 11:29:06;;;;;;;201.18;38.28;;;8.00;99.90;;;;;;5048016;28;20045;-68
2022/12/21 11:31:33;;;;;;;188.57;39.03;;;8.10;99.90;;;;;;5047172;28;20403;-70
2022/12/21 11:33:58;;;;;;;167.23;37.08;;;8.10;99.90;;;;;;5047970;28;20074;-69
2022/12/21 11:36:24;;;;;;;173.43;36.72;;;8.10;99.90;;;;;;5031223;28;20068;-68
2022/12/21 11:38:50;;;;;;;168.38;35.53;;;8.10;99.90;;;;;;5043563;28;20063;-68
2022/12/21 11:41:29;;;;;;;165.18;35.70;;;8.10;99.90;;;;;;5042575;28;20132;-69
2022/12/21 11:43:55;;;;;;;170.55;34.90;;;8.10;99.90;;;;;;5046333;28;20546;-69
2022/12/21 11:46:43;;;;;;;166.48;34.95;;;8.30;99.90;;;;;;5047243;28;20033;-70
2022/12/21 11:49:30;;;;;;;166.65;35.45;;;8.20;99.90;;;;;;5059746;28;20045;-70
2022/12/21 11:52:01;;;;;;;167.98;34.65;;;8.20;99.90;;;;;;5037976;28;20040;-70
2022/12/21 11:54:46;;;;;;;157.20;33.47;;;8.30;99.90;;;;;;5047399;28;20076;-69
2022/12/21 11:57:35;;;;;;;152.80;33.22;;;8.30;99.90;;;;;;5062104;28;20052;-70
2022/12/21 12:00:06;;;;;;;142.98;32.65;;;8.40;99.90;;;;;;5036556;28;20047;-70
2022/12/21 12:02:41;;;;;;;132.88;32.42;;;8.40;99.90;;;;;;5050024;28;20120;-69
2022/12/21 12:05:25;;;;;;;130.18;31.48;;;8.30;99.90;;;;;;5044155;28;20037;-70
2022/12/21 12:08:20;;;;;;;124.47;30.63;;;8.40;99.90;;;;;;5042773;28;20045;-70
2022/12/21 12:11:18;;;;;;;126.70;31.88;;;8.40;99.90;;;;;;5025810;28;20461;-70
2022/12/21 12:13:49;;;;;;;121.65;30.80;;;8.30;99.90;;;;;;5042090;28;20048;-69
2022/12/21 12:16:54;;;;;;;114.33;29.57;;;8.40;99.90;;;;;;5047504;28;20665;-70
2022/12/21 12:19:46;;;;;;;133.38;30.65;;;8.30;99.90;;;;;;4993773;28;20646;-70
2022/12/21 12:22:12;;;;;;;;;;;8.30;99.90;;;;;;5044109;28;20041;-70
2022/12/21 12:24:46;;;;;;;102.15;27.05;;;8.20;99.90;;;;;;5030646;28;19921;-69
2022/12/21 12:27:41;;;;;;;116.90;29.42;;;8.30;99.90;;;;;;5044751;28;21450;-71
2022/12/21 12:30:20;;;;;;;108.35;30.23;;;8.10;99.90;;;;;;5041599;28;20262;-70
2022/12/21 12:33:14;;;;;;;116.20;31.15;;;8.10;99.90;;;;;;5035178;28;20507;-67
2022/12/21 12:35:55;;;;;;;117.30;32.65;;;8.20;99.90;;;;;;5042012;28;20171;-69
2022/12/21 12:38:20;;;;;;;124.03;33.15;;;8.00;99.90;;;;;;5042423;28;20048;-71
2022/12/21 12:41:15;;;;;;;117.30;32.13;;;8.10;99.90;;;;;;5045960;28;20040;-70
2022/12/21 12:44:05;;;;;;;120.15;34.00;;;8.00;99.90;;;;;;5042570;28;20058;-69
2022/12/21 12:46:50;;;;;;;120.93;33.10;;;8.00;99.90;;;;;;5044529;28;21326;-71
2022/12/21 12:49:41;;;;;;;118.03;33.53;;;8.00;99.90;;;;;;5051141;28;20048;-70
2022/12/21 12:52:25;;;;;;;117.43;34.85;;;8.00;99.90;;;;;;5048642;28;20048;-70
2022/12/21 12:55:12;;;;;;;124.13;36.20;;;7.90;99.90;;;;;;5050060;28;20075;-69
2022/12/21 12:58:02;;;;;;;114.10;34.45;;;7.90;99.90;;;;;;5055197;28;20044;-70
2022/12/21 13:00:33;;;;;;;125.95;35.33;;;8.00;99.90;;;;;;5050429;28;20048;-70
2022/12/21 13:03:10;;;;;;;131.23;36.33;;;7.90;99.90;;;;;;5048613;28;20112;-70